createdAt,value
2022-12-20T00:01:49.820Z,86.97
2022-12-20T00:04:16.438Z,86.65
2022-12-20T00:06:45.336Z,86.73
2022-12-20T00:09:12.720Z,86.78
2022-12-20T00:11:42.216Z,86.42
2022-12-20T00:14:10.068Z,86.75
2022-12-20T00:16:37.436Z,86.57
2022-12-20T00:19:06.100Z,86.50
2022-12-20T00:21:34.397Z,86.25
2022-12-20T00:24:01.075Z,86.06
2022-12-20T00:26:30.041Z,86.04
2022-12-20T00:28:57.020Z,86.06
2022-12-20T00:31:25.287Z,85.84
2022-12-20T00:33:56.757Z,85.93
2022-12-20T00:36:25.044Z,85.71
2022-12-20T00:38:53.880Z,85.53
2022-12-20T00:41:23.302Z,85.60
2022-12-20T00:43:49.984Z,85.54
2022-12-20T00:46:21.015Z,85.50
2022-12-20T00:48:50.152Z,85.74
2022-12-20T00:51:22.228Z,85.15
2022-12-20T00:53:53.793Z,85.21
2022-12-20T00:56:21.066Z,85.06
2022-12-20T00:58:48.058Z,85.23
2022-12-20T01:01:19.216Z,85.03
2022-12-20T01:03:45.999Z,85.25
2022-12-20T01:06:12.987Z,85.35
2022-12-20T01:08:39.866Z,85.02
2022-12-20T01:11:13.073Z,84.97
2022-12-20T01:13:43.057Z,84.66
2022-12-20T01:16:14.112Z,84.71
2022-12-20T01:18:42.849Z,85.05
2022-12-20T01:21:12.770Z,85.16
2022-12-20T01:23:40.408Z,85.29
2022-12-20T01:26:11.603Z,85.36
2022-12-20T01:28:43.141Z,85.45
2022-12-20T01:31:13.952Z,85.60
2022-12-20T01:33:40.882Z,85.92
2022-12-20T01:36:10.796Z,86.00
2022-12-20T01:38:37.326Z,86.25
2022-12-20T01:41:04.621Z,86.26
2022-12-20T01:43:50.075Z,86.69
2022-12-20T01:46:16.956Z,86.54
2022-12-20T01:48:54.887Z,86.83
2022-12-20T01:51:24.546Z,87.17
2022-12-20T01:53:58.145Z,87.22
2022-12-20T01:56:25.096Z,87.73
2022-12-20T01:58:55.707Z,87.55
2022-12-20T02:01:24.686Z,87.78
2022-12-20T02:03:54.043Z,88.08
2022-12-20T02:06:24.303Z,87.89
2022-12-20T02:08:55.416Z,88.31
2022-12-20T02:12:01.365Z,88.78
2022-12-20T02:14:27.795Z,88.53
2022-12-20T02:17:17.015Z,89.11
2022-12-20T02:19:43.497Z,88.80
2022-12-20T02:22:09.996Z,89.20
2022-12-20T02:24:58.405Z,89.31
2022-12-20T02:27:35.857Z,89.61
2022-12-20T02:30:06.628Z,89.49
2022-12-20T02:32:45.465Z,89.90
2022-12-20T02:35:15.373Z,89.98
2022-12-20T02:37:54.335Z,89.99
2022-12-20T02:40:24.987Z,90.14
2022-12-20T02:42:57.336Z,90.07
2022-12-20T02:45:34.185Z,90.16
2022-12-20T02:48:12.976Z,90.56
2022-12-20T02:50:56.554Z,90.33
2022-12-20T02:53:29.651Z,90.45
2022-12-20T02:56:05.788Z,90.51
2022-12-20T02:58:38.299Z,90.44
2022-12-20T03:01:11.845Z,90.96
2022-12-20T03:03:39.933Z,90.61
2022-12-20T03:06:12.580Z,90.50
2022-12-20T03:08:39.151Z,90.82
2022-12-20T03:11:08.304Z,90.64
2022-12-20T03:13:37.349Z,91.11
2022-12-20T03:16:06.898Z,91.20
2022-12-20T03:18:35.710Z,90.74
2022-12-20T03:21:04.812Z,91.13
2022-12-20T03:23:31.729Z,90.72
2022-12-20T03:25:58.388Z,90.53
2022-12-20T03:28:27.357Z,91.14
2022-12-20T03:30:56.541Z,90.72
2022-12-20T03:33:23.221Z,90.66
2022-12-20T03:35:52.322Z,90.92
2022-12-20T03:38:19.100Z,90.89
2022-12-20T03:40:45.668Z,90.66
2022-12-20T03:43:12.317Z,90.77
2022-12-20T03:45:41.279Z,90.57
2022-12-20T03:48:07.818Z,90.56
2022-12-20T03:50:37.289Z,90.51
2022-12-20T03:53:05.961Z,90.17
2022-12-20T03:55:32.513Z,90.19
2022-12-20T03:57:59.079Z,89.92
2022-12-20T04:00:26.224Z,90.13
2022-12-20T04:02:53.014Z,89.83
2022-12-20T04:05:19.951Z,89.92
2022-12-20T04:07:46.556Z,89.70
2022-12-20T04:10:13.563Z,89.76
2022-12-20T04:12:40.204Z,89.72
2022-12-20T04:15:08.159Z,89.69
2022-12-20T04:17:34.771Z,89.32
2022-12-20T04:20:18.984Z,89.26
2022-12-20T04:22:52.828Z,89.32
2022-12-20T04:25:23.764Z,89.30
2022-12-20T04:27:50.407Z,89.37
2022-12-20T04:30:17.090Z,89.30
2022-12-20T04:32:46.830Z,88.96
2022-12-20T04:35:13.395Z,89.08
2022-12-20T04:37:40.133Z,88.69
2022-12-20T04:40:07.462Z,88.56
2022-12-20T04:42:36.363Z,88.82
2022-12-20T04:45:04.404Z,88.71
2022-12-20T04:47:33.593Z,88.77
2022-12-20T04:50:00.215Z,88.60
2022-12-20T04:52:47.930Z,88.62
2022-12-20T04:55:18.444Z,88.11
2022-12-20T04:57:47.459Z,88.60
2022-12-20T05:00:15.477Z,88.49
2022-12-20T05:02:42.325Z,88.65
2022-12-20T05:05:09.348Z,88.40
2022-12-20T05:07:35.975Z,88.75
2022-12-20T05:10:05.019Z,88.58
2022-12-20T05:12:31.675Z,88.53
2022-12-20T05:15:00.796Z,88.63
2022-12-20T05:17:29.583Z,88.89
2022-12-20T05:19:58.652Z,88.69
2022-12-20T05:23:03.683Z,88.92
2022-12-20T05:25:48.572Z,88.80
2022-12-20T05:28:15.099Z,88.61
2022-12-20T05:30:41.731Z,88.87
2022-12-20T05:33:08.317Z,88.62
2022-12-20T05:35:35.223Z,88.74
2022-12-20T05:38:02.838Z,88.77
2022-12-20T05:40:29.410Z,88.54
2022-12-20T05:42:56.050Z,88.77
2022-12-20T05:45:22.911Z,88.67
2022-12-20T05:47:51.888Z,88.54
2022-12-20T05:50:21.310Z,88.77
2022-12-20T05:52:48.021Z,88.87
2022-12-20T05:55:14.612Z,88.76
2022-12-20T05:57:43.560Z,88.41
2022-12-20T06:00:11.436Z,88.59
2022-12-20T06:02:38.420Z,88.40
2022-12-20T06:05:07.912Z,88.49
2022-12-20T06:07:36.858Z,88.37
2022-12-20T06:10:03.819Z,88.45
2022-12-20T06:12:32.650Z,88.48
2022-12-20T06:14:59.250Z,88.27
2022-12-20T06:17:26.134Z,88.46
2022-12-20T06:19:52.815Z,88.36
2022-12-20T06:22:19.339Z,88.47
2022-12-20T06:24:48.652Z,88.23
2022-12-20T06:27:15.582Z,88.47
2022-12-20T06:29:42.739Z,88.47
2022-12-20T06:32:12.300Z,88.36
2022-12-20T06:34:39.689Z,88.30
2022-12-20T06:37:06.241Z,88.35
2022-12-20T06:39:35.564Z,88.59
2022-12-20T06:42:04.647Z,88.26
2022-12-20T06:44:31.376Z,88.49
2022-12-20T06:46:58.062Z,88.51
2022-12-20T06:49:24.597Z,88.50
2022-12-20T06:51:51.351Z,88.57
2022-12-20T06:54:20.246Z,88.24
2022-12-20T06:56:46.825Z,88.05
2022-12-20T06:59:13.641Z,88.25
2022-12-20T07:01:42.601Z,88.05
2022-12-20T07:04:09.290Z,88.23
2022-12-20T07:06:35.935Z,88.16
2022-12-20T07:09:07.309Z,87.89
2022-12-20T07:11:33.841Z,87.92
2022-12-20T07:14:00.467Z,87.88
2022-12-20T07:16:27.087Z,87.77
2022-12-20T07:18:54.391Z,87.78
2022-12-20T07:21:22.047Z,87.53
2022-12-20T07:23:48.640Z,87.24
2022-12-20T07:26:15.519Z,87.36
2022-12-20T07:28:44.956Z,87.15
2022-12-20T07:31:11.581Z,86.98
2022-12-20T07:33:40.703Z,86.90
2022-12-20T07:36:10.731Z,86.63
2022-12-20T07:38:37.663Z,86.81
2022-12-20T07:41:18.083Z,86.88
2022-12-20T07:43:47.209Z,86.60
2022-12-20T07:46:16.138Z,86.82
2022-12-20T07:48:43.189Z,86.84
2022-12-20T07:51:18.127Z,86.72
2022-12-20T07:54:06.490Z,86.42
2022-12-20T07:56:41.562Z,86.46
2022-12-20T07:59:11.694Z,86.47
2022-12-20T08:01:39.677Z,86.31
2022-12-20T08:04:12.989Z,86.33
2022-12-20T08:06:42.105Z,86.22
2022-12-20T08:09:12.652Z,86.20
2022-12-20T08:11:43.487Z,86.05
2022-12-20T08:14:11.176Z,85.80
2022-12-20T08:16:41.736Z,86.29
2022-12-20T08:19:08.367Z,86.27
2022-12-20T08:21:37.100Z,86.41
2022-12-20T08:24:06.377Z,86.15
2022-12-20T08:26:38.377Z,86.54
2022-12-20T08:29:08.001Z,86.43
2022-12-20T08:31:49.462Z,86.63
2022-12-20T08:34:19.257Z,86.55
2022-12-20T08:36:45.797Z,86.66
2022-12-20T08:39:12.377Z,86.72
2022-12-20T08:41:39.260Z,86.70
2022-12-20T08:44:06.785Z,87.10
2022-12-20T08:46:33.978Z,87.10
2022-12-20T08:49:04.680Z,87.19
2022-12-20T08:51:31.609Z,87.38
2022-12-20T08:54:00.744Z,87.52
2022-12-20T08:56:27.308Z,87.67
2022-12-20T08:58:54.050Z,87.54
2022-12-20T09:01:27.003Z,87.75
2022-12-20T09:03:53.794Z,87.91
2022-12-20T09:06:21.941Z,88.11
2022-12-20T09:08:49.576Z,88.05
2022-12-20T09:11:24.830Z,88.31
2022-12-20T09:13:53.808Z,88.29
2022-12-20T09:16:23.094Z,88.47
2022-12-20T09:18:51.739Z,88.55
2022-12-20T09:21:22.839Z,88.69
2022-12-20T09:23:54.562Z,88.36
2022-12-20T09:26:24.827Z,88.70
2022-12-20T09:28:51.735Z,88.49
2022-12-20T09:31:22.051Z,88.52
2022-12-20T09:33:54.691Z,88.46
2022-12-20T09:36:22.986Z,88.61
2022-12-20T09:38:49.964Z,88.76
2022-12-20T09:41:27.701Z,89.09
2022-12-20T09:43:58.652Z,88.75
2022-12-20T09:46:27.301Z,88.93
2022-12-20T09:48:54.272Z,88.82
2022-12-20T09:52:08.222Z,88.97
2022-12-20T09:54:37.130Z,89.15
2022-12-20T09:57:23.075Z,89.14
2022-12-20T09:59:52.394Z,89.31
2022-12-20T10:02:56.600Z,89.52
2022-12-20T10:05:18.029Z,89.65
2022-12-20T10:07:55.855Z,89.49
2022-12-20T10:10:39.831Z,89.65
2022-12-20T10:13:46.591Z,89.38
2022-12-20T10:16:42.517Z,89.42
2022-12-20T10:19:43.595Z,89.46
2022-12-20T10:22:34.145Z,89.53
2022-12-20T10:25:24.982Z,89.26
2022-12-20T10:27:55.398Z,89.59
2022-12-20T10:30:24.383Z,89.40
2022-12-20T10:32:55.966Z,89.75
2022-12-20T10:35:45.577Z,89.97
2022-12-20T10:38:17.772Z,89.88
2022-12-20T10:43:51.045Z,89.74
2022-12-20T10:46:20.162Z,89.84
2022-12-20T10:48:48.806Z,89.93
2022-12-20T10:51:18.027Z,90.30
2022-12-20T10:54:02.194Z,90.23
2022-12-20T10:56:29.873Z,89.98
2022-12-20T10:59:18.234Z,89.93
2022-12-20T11:01:49.130Z,90.19
2022-12-20T11:04:28.044Z,90.09
2022-12-20T11:06:56.632Z,89.86
2022-12-20T11:09:24.921Z,90.18
2022-12-20T11:12:18.499Z,90.24
2022-12-20T11:14:46.771Z,89.92
2022-12-20T11:17:32.632Z,90.08
2022-12-20T11:20:15.198Z,90.41
2022-12-20T11:22:47.876Z,90.38
2022-12-20T11:25:38.161Z,90.35
2022-12-20T11:28:33.994Z,90.71
2022-12-20T11:31:22.131Z,90.52
2022-12-20T11:34:39.743Z,90.65
2022-12-20T11:37:27.909Z,90.38
2022-12-20T11:40:17.670Z,90.52
2022-12-20T11:43:28.198Z,90.48
2022-12-20T11:46:28.266Z,90.47
2022-12-20T11:49:13.733Z,90.76
2022-12-20T11:51:47.386Z,90.81
2022-12-20T11:54:35.039Z,91.12
2022-12-20T11:57:15.371Z,91.33
2022-12-20T11:59:57.664Z,91.55
2022-12-20T12:02:58.045Z,91.46
2022-12-20T12:05:45.898Z,91.62
2022-12-20T12:08:25.331Z,91.65
2022-12-20T12:11:25.496Z,91.79
2022-12-20T12:13:57.645Z,91.46
2022-12-20T12:16:42.274Z,91.66
2022-12-20T12:19:11.758Z,91.66
2022-12-20T12:21:50.536Z,92.01
2022-12-20T12:24:34.953Z,92.42
2022-12-20T12:27:02.639Z,92.32
2022-12-20T12:29:30.928Z,91.64
2022-12-20T12:32:06.185Z,92.25
2022-12-20T12:35:04.827Z,92.34
2022-12-20T12:37:50.013Z,92.50
2022-12-20T12:40:47.426Z,92.75
2022-12-20T12:43:17.093Z,92.64
2022-12-20T12:45:49.962Z,92.90
2022-12-20T12:48:49.945Z,92.79
2022-12-20T12:51:24.815Z,92.78
2022-12-20T12:53:54.039Z,93.17
2022-12-20T12:56:43.322Z,93.10
2022-12-20T12:59:24.958Z,93.24
2022-12-20T13:02:04.220Z,93.08
2022-12-20T13:04:58.785Z,93.25
2022-12-20T13:07:35.266Z,93.42
2022-12-20T13:10:24.934Z,93.49
2022-12-20T13:12:52.614Z,93.30
2022-12-20T13:15:22.180Z,93.59
2022-12-20T13:17:57.056Z,93.63
2022-12-20T13:20:32.557Z,93.65
2022-12-20T13:23:08.488Z,93.99
2022-12-20T13:25:39.772Z,93.92
2022-12-20T13:28:24.782Z,94.06
2022-12-20T13:31:04.921Z,94.14
2022-12-20T13:33:42.249Z,94.12
2022-12-20T13:36:11.790Z,94.26
2022-12-20T13:38:53.844Z,94.37
2022-12-20T13:41:45.281Z,94.38
2022-12-20T13:44:14.565Z,94.26
2022-12-20T13:46:49.836Z,94.68
2022-12-20T13:49:40.133Z,94.53
2022-12-20T13:52:23.024Z,94.69
2022-12-20T13:54:54.465Z,94.71
2022-12-20T13:57:29.746Z,94.75
2022-12-20T14:00:05.671Z,94.63
2022-12-20T14:02:42.162Z,94.81
2022-12-20T14:05:19.774Z,94.73
2022-12-20T14:08:14.714Z,95.01
2022-12-20T14:10:46.577Z,94.84
2022-12-20T14:13:25.969Z,95.07
2022-12-20T14:15:53.716Z,95.06
2022-12-20T14:18:26.963Z,95.09
2022-12-20T14:21:01.355Z,95.48
2022-12-20T14:23:48.591Z,95.28
2022-12-20T14:26:40.994Z,95.39
2022-12-20T14:29:19.461Z,95.47
2022-12-20T14:31:50.104Z,95.71
2022-12-20T14:34:41.766Z,95.58
2022-12-20T14:37:41.680Z,95.56
2022-12-20T14:40:11.183Z,95.41
2022-12-20T14:42:39.964Z,95.68
2022-12-20T14:45:09.593Z,95.84
2022-12-20T14:47:37.535Z,95.99
2022-12-20T14:50:21.032Z,95.94
2022-12-20T14:52:47.880Z,95.93
2022-12-20T14:55:27.471Z,96.83
2022-12-20T14:57:58.333Z,96.68
2022-12-20T15:00:32.902Z,97.03
2022-12-20T15:03:23.001Z,96.84
2022-12-20T15:05:59.618Z,97.10
2022-12-20T15:08:33.000Z,96.81
2022-12-20T15:11:08.740Z,96.64
2022-12-20T15:13:43.060Z,96.77
2022-12-20T15:16:21.559Z,96.50
2022-12-20T15:18:49.771Z,96.89
2022-12-20T15:21:19.705Z,96.76
2022-12-20T15:23:49.573Z,96.77
2022-12-20T15:26:20.069Z,96.55
2022-12-20T15:28:46.905Z,96.73
2022-12-20T15:31:16.525Z,96.73
2022-12-20T15:33:44.433Z,96.60
2022-12-20T15:36:29.846Z,96.81
2022-12-20T15:39:14.157Z,96.77
2022-12-20T15:41:50.930Z,97.05
2022-12-20T15:44:20.742Z,96.81
2022-12-20T15:46:50.492Z,96.81
2022-12-20T15:49:20.306Z,96.69
2022-12-20T15:51:48.862Z,96.91
2022-12-20T15:54:19.580Z,97.02
2022-12-20T15:56:46.146Z,96.81
2022-12-20T15:59:57.039Z,97.00
2022-12-20T16:01:59.625Z,97.11
2022-12-20T16:04:28.964Z,97.01
2022-12-20T16:06:55.839Z,97.59
2022-12-20T16:09:25.569Z,97.74
2022-12-20T16:11:52.574Z,97.43
2022-12-20T16:14:21.284Z,97.65
2022-12-20T16:16:50.174Z,97.49
2022-12-20T16:19:20.118Z,97.33
2022-12-20T16:21:51.548Z,97.26
2022-12-20T16:24:22.369Z,97.47
2022-12-20T16:26:49.472Z,97.26
2022-12-20T16:29:16.211Z,97.37
2022-12-20T16:31:42.944Z,97.45
2022-12-20T16:34:17.818Z,97.55
2022-12-20T16:36:44.747Z,97.65
2022-12-20T16:39:11.695Z,97.53
2022-12-20T16:41:41.147Z,97.61
2022-12-20T16:44:16.711Z,97.64
2022-12-20T16:46:43.863Z,97.57
2022-12-20T16:49:19.982Z,98.26
2022-12-20T16:51:48.984Z,98.03
2022-12-20T16:54:20.611Z,97.99
2022-12-20T16:56:55.325Z,98.12
2022-12-20T16:59:23.401Z,97.71
2022-12-20T17:01:53.387Z,97.99
2022-12-20T17:04:21.413Z,98.26
2022-12-20T17:06:50.510Z,98.08
2022-12-20T17:12:16.242Z,98.22
2022-12-20T17:14:46.404Z,98.15
2022-12-20T17:17:16.031Z,98.16
2022-12-20T17:19:42.627Z,98.36
2022-12-20T17:25:03.078Z,98.36
2022-12-20T17:27:29.691Z,98.45
2022-12-20T17:29:56.318Z,98.16
2022-12-20T17:32:25.573Z,98.33
2022-12-20T17:34:52.851Z,98.38
2022-12-20T17:37:21.172Z,98.45
2022-12-20T17:39:48.131Z,98.34
2022-12-20T17:42:15.353Z,98.50
2022-12-20T17:44:42.301Z,98.54
2022-12-20T17:47:09.062Z,98.32
2022-12-20T17:49:35.622Z,98.22
2022-12-20T17:52:02.259Z,98.62
2022-12-20T17:54:34.849Z,98.37
2022-12-20T17:57:03.635Z,98.43
2022-12-20T17:59:31.469Z,98.33
2022-12-20T18:01:58.456Z,98.69
2022-12-20T18:04:28.021Z,98.68
2022-12-20T18:06:54.739Z,98.76
2022-12-20T18:09:21.860Z,98.58
2022-12-20T18:11:48.914Z,98.52
2022-12-20T18:14:16.026Z,98.71
2022-12-20T18:16:43.307Z,99.42
2022-12-20T18:19:19.301Z,99.33
2022-12-20T18:21:45.884Z,99.11
2022-12-20T18:24:14.692Z,99.17
2022-12-20T18:26:42.009Z,98.80
2022-12-20T18:29:10.789Z,99.32
2022-12-20T18:31:37.896Z,99.08
2022-12-20T18:34:05.242Z,99.53
2022-12-20T18:36:38.607Z,99.44
2022-12-20T18:39:07.165Z,99.25
2022-12-20T18:41:35.318Z,99.24
2022-12-20T18:44:04.995Z,99.22
2022-12-20T18:46:32.427Z,98.89
2022-12-20T18:49:01.279Z,99.15
2022-12-20T18:51:36.552Z,99.08
2022-12-20T18:54:08.544Z,99.17
2022-12-20T18:56:37.503Z,99.07
2022-12-20T18:59:11.357Z,98.90
2022-12-20T19:01:39.464Z,99.15
2022-12-20T19:04:08.177Z,98.88
2022-12-20T19:06:35.871Z,99.11
2022-12-20T19:09:04.554Z,99.22
2022-12-20T19:11:31.508Z,99.13
2022-12-20T19:13:58.247Z,98.86
2022-12-20T19:16:31.941Z,99.11
2022-12-20T19:18:59.789Z,100.00
2022-12-20T19:21:31.485Z,100.00
2022-12-20T19:24:00.556Z,99.49
2022-12-20T19:26:30.567Z,99.32
2022-12-20T19:28:57.942Z,99.33
2022-12-20T19:31:30.613Z,99.60
2022-12-20T19:34:05.597Z,99.45
2022-12-20T19:36:41.338Z,99.65
2022-12-20T19:39:22.566Z,99.60
2022-12-20T19:44:36.465Z,99.18
2022-12-20T19:47:06.048Z,99.37
2022-12-20T19:49:33.308Z,99.36
2022-12-20T19:52:00.256Z,99.70
2022-12-20T19:54:26.941Z,99.78
2022-12-20T19:56:53.465Z,99.49
2022-12-20T19:59:22.393Z,99.73
2022-12-20T20:01:53.904Z,99.47
2022-12-20T20:04:20.578Z,99.82
2022-12-20T20:06:47.207Z,99.23
2022-12-20T20:09:14.010Z,99.47
2022-12-20T20:11:40.572Z,99.65
2022-12-20T20:14:09.487Z,99.94
2022-12-20T20:16:39.418Z,99.74
2022-12-20T20:19:08.294Z,99.59
2022-12-20T20:21:36.714Z,99.45
2022-12-20T20:24:03.989Z,99.65
2022-12-20T20:26:32.950Z,99.78
2022-12-20T20:29:01.573Z,99.53
2022-12-20T20:31:28.631Z,99.73
2022-12-20T20:33:59.660Z,99.54
2022-12-20T20:36:26.500Z,99.81
2022-12-20T20:38:55.356Z,99.49
2022-12-20T20:41:22.871Z,99.65
2022-12-20T20:43:50.005Z,99.74
2022-12-20T20:46:17.467Z,99.94
2022-12-20T20:48:45.779Z,99.75
2022-12-20T20:51:13.148Z,99.96
2022-12-20T20:53:42.108Z,99.85
2022-12-20T20:56:09.803Z,99.68
2022-12-20T20:58:36.995Z,99.79
2022-12-20T21:01:06.465Z,99.99
2022-12-20T21:03:35.505Z,99.90
2022-12-20T21:08:48.800Z,99.70
2022-12-20T21:11:15.545Z,99.72
2022-12-20T21:13:42.173Z,99.55
2022-12-20T21:16:20.567Z,100.00
2022-12-20T21:18:52.095Z,99.85
2022-12-20T21:21:20.347Z,99.67
2022-12-20T21:23:48.053Z,99.90
2022-12-20T21:26:16.296Z,99.60
2022-12-20T21:28:44.103Z,99.97
2022-12-20T21:31:13.528Z,99.63
2022-12-20T21:33:42.927Z,99.85
2022-12-20T21:36:15.493Z,99.95
2022-12-20T21:38:42.580Z,100.00
2022-12-20T21:41:12.482Z,99.88
2022-12-20T21:43:41.627Z,99.75
2022-12-20T21:46:11.707Z,100.00
2022-12-20T21:48:43.698Z,100.00
2022-12-20T21:51:13.511Z,100.00
2022-12-20T21:53:45.545Z,100.00
2022-12-20T21:56:13.073Z,100.00
2022-12-20T21:58:39.645Z,99.99
2022-12-20T22:01:08.130Z,100.00
2022-12-20T22:03:38.192Z,100.00
2022-12-20T22:06:05.925Z,100.00
2022-12-20T22:08:32.990Z,100.00
2022-12-20T22:11:00.332Z,100.00
2022-12-20T22:13:28.416Z,100.00
2022-12-20T22:15:55.391Z,100.00
2022-12-20T22:18:23.088Z,99.87
2022-12-20T22:20:51.740Z,100.00
2022-12-20T22:23:18.751Z,99.80
2022-12-20T22:25:47.606Z,100.00
2022-12-20T22:28:16.564Z,99.87
2022-12-20T22:30:43.167Z,99.90
2022-12-20T22:33:09.871Z,99.88
2022-12-20T22:35:36.523Z,99.78
2022-12-20T22:38:04.403Z,100.00
2022-12-20T22:40:31.902Z,99.72
2022-12-20T22:43:00.753Z,99.69
2022-12-20T22:45:27.316Z,100.00
2022-12-20T22:47:53.962Z,100.00
2022-12-20T22:50:20.581Z,100.00
2022-12-20T22:52:49.349Z,100.00
2022-12-20T22:55:16.099Z,100.00
2022-12-20T22:57:45.165Z,100.00
2022-12-20T23:00:13.244Z,99.87
2022-12-20T23:02:43.097Z,100.00
2022-12-20T23:05:09.803Z,100.00
2022-12-20T23:07:41.131Z,100.00
2022-12-20T23:10:28.120Z,100.00
2022-12-20T23:13:13.262Z,100.00
2022-12-20T23:15:42.713Z,100.00
2022-12-20T23:18:09.355Z,100.00
2022-12-20T23:20:57.185Z,100.00
2022-12-20T23:23:25.895Z,100.00
2022-12-20T23:25:54.879Z,100.00
2022-12-20T23:28:26.285Z,100.00
2022-12-20T23:30:52.847Z,100.00
2022-12-20T23:33:19.411Z,100.00
2022-12-20T23:35:45.986Z,100.00
2022-12-20T23:38:12.512Z,100.00
2022-12-20T23:40:42.915Z,100.00
2022-12-20T23:43:09.476Z,100.00
2022-12-20T23:45:38.355Z,100.00
2022-12-20T23:48:07.497Z,100.00
2022-12-20T23:50:34.119Z,100.00
2022-12-20T23:53:00.861Z,100.00
2022-12-20T23:55:28.376Z,100.00
2022-12-20T23:57:54.929Z,100.00
